Old Fields, West Virginia
Current Conditions -  °F | °C
As of 12:55 PM on Monday 24 Nov 2014 (Local Time) from KW99 Reporting Station
Clear Clear  
Wind Chill: 21°   Ceiling: Unl
Heat Index: 21°   Visibility: 10mi
Dew Point:   Wind: 17mph
Humidity: 42%   Direction: 170°S
Pressure: 29.55"   Gusts: 24mph
Location:  39.14°N, 78.95°W
Report Text: KW99 241755Z AUTO 17015G21KT 10SM CLR 21/08 A2955 RMK AO2 T02070075 10207 20141
Loading
Personal Weather Stations






























Interactive Weather Map New forecast layout! Learn more

10-Day Weather Forecast

Advertisements
Track Severe Weather on mobile